OIFS  Shahrekord  Airport

Shahrekord, Iran

Add Bookmark
ICAO OIFS
IATA CQD
Type Airport
Status Operational
Latitude
32° 17' 49" N
32.297199
Longitude
50° 50' 31" E
50.842201
Local (DST + 5) UTC (GMT + 4)
Jul 7, 2015 05:50 Jul 7, 2015 13:20
Sunrise-Sunset Local UTC
Begin Civil Twilight 05:36 01:06
Sunrise 06:04 01:34
Sunset 08:18 15:48
End Civil Twilight 08:46 16:16
VFR
VFR
MVFR
MVFR
IFR
IFR
LIFR
LIFR
Unknown
Unavailable

Current Weather

METAR Observed VFR
OIFS 071300Z 08006KT 9999 SCT040 34/M00 Q1016 Tue, Jul 7, 2015 @ 13:00 UTC
(20 Minutes ago)
Visual Flight Rules
Wind Visibility Clouds Conditions
080° at 6 knots (11 kph) 10 km or more
  • Scattered at 4,000 ft AGL
  • No significant weather
Temperatures Readings Precipitation
Current Temp
34°C
93°F
Dewpoint
0°C
32°F
Humidity 11%
Altimeter 30" Hg
Sea Level Pressure 1,016 mb
Field Elevation
2,078 m
6,818 ft
None Recorded
-
-

CheckWX.com is intended as a tool to help pilots better visualize weather data. It is not intended as a substitute for an official weather briefing obtained from a Flight Service Station. CheckWX.com does not meet the FAA requirements for an official pre-flight weather briefing. Therefore, it's important that pilots still call and obtain an official FSS pre-flight weather briefing.

© 2007-2015 CheckWX.com
13:20:38 UTC